<?xml version='1.0' encoding='UTF-8'?>
<gpx version="1.1" creator="https://www.komoot.de" xmlns="http://www.topografix.com/GPX/1/1" xmlns:xsi="http://www.w3.org/2001/XMLSchema-instance" xsi:schemaLocation="http://www.topografix.com/GPX/1/1 http://www.topografix.com/GPX/1/1/gpx.xsd">
  <metadata>
    <name>de Neuilly-sur-Seine à Asnières-sur-Seine</name>
    <author>
      <link href="https://www.komoot.de">
        <text>komoot</text>
        <type>text/html</type>
      </link>
    </author>
  </metadata>
  <trk>
    <name>de Neuilly-sur-Seine à Asnières-sur-Seine</name>
    <trkseg>
      <trkpt lat="48.884373" lon="2.269320">
        <ele>39.939179</ele>
        <time>2025-09-27T06:50:21.309Z</time>
      </trkpt>
      <trkpt lat="48.884439" lon="2.269026">
        <ele>39.939179</ele>
        <time>2025-09-27T06:50:24.925Z</time>
      </trkpt>
      <trkpt lat="48.884462" lon="2.268923">
        <ele>39.939179</ele>
        <time>2025-09-27T06:50:25.877Z</time>
      </trkpt>
      <trkpt lat="48.884560" lon="2.268487">
        <ele>39.939179</ele>
        <time>2025-09-27T06:50:30.847Z</time>
      </trkpt>
      <trkpt lat="48.884586" lon="2.268373">
        <ele>39.939179</ele>
        <time>2025-09-27T06:50:32.379Z</time>
      </trkpt>
      <trkpt lat="48.884663" lon="2.268043">
        <ele>39.939179</ele>
        <time>2025-09-27T06:50:35.922Z</time>
      </trkpt>
      <trkpt lat="48.884795" lon="2.267467">
        <ele>39.909929</ele>
        <time>2025-09-27T06:50:42.836Z</time>
      </trkpt>
      <trkpt lat="48.884866" lon="2.267418">
        <ele>39.904085</ele>
        <time>2025-09-27T06:50:44.044Z</time>
      </trkpt>
      <trkpt lat="48.885647" lon="2.264041">
        <ele>39.129384</ele>
        <time>2025-09-27T06:51:16.705Z</time>
      </trkpt>
      <trkpt lat="48.885604" lon="2.263934">
        <ele>39.075003</ele>
        <time>2025-09-27T06:51:17.727Z</time>
      </trkpt>
      <trkpt lat="48.885635" lon="2.263809">
        <ele>39.017068</ele>
        <time>2025-09-27T06:51:18.747Z</time>
      </trkpt>
      <trkpt lat="48.885665" lon="2.263684">
        <ele>38.959364</ele>
        <time>2025-09-27T06:51:19.752Z</time>
      </trkpt>
      <trkpt lat="48.885729" lon="2.263679">
        <ele>38.917101</ele>
        <time>2025-09-27T06:51:20.508Z</time>
      </trkpt>
      <trkpt lat="48.885795" lon="2.263389">
        <ele>38.784021</ele>
        <time>2025-09-27T06:51:22.876Z</time>
      </trkpt>
      <trkpt lat="48.885951" lon="2.262734">
        <ele>38.569240</ele>
        <time>2025-09-27T06:51:28.207Z</time>
      </trkpt>
      <trkpt lat="48.885924" lon="2.262633">
        <ele>38.552263</ele>
        <time>2025-09-27T06:51:29.025Z</time>
      </trkpt>
      <trkpt lat="48.886180" lon="2.262095">
        <ele>38.448855</ele>
        <time>2025-09-27T06:51:35.368Z</time>
      </trkpt>
      <trkpt lat="48.886407" lon="2.261722">
        <ele>38.369716</ele>
        <time>2025-09-27T06:51:40.520Z</time>
      </trkpt>
      <trkpt lat="48.886467" lon="2.261813">
        <ele>38.349650</ele>
        <time>2025-09-27T06:51:41.795Z</time>
      </trkpt>
      <trkpt lat="48.886912" lon="2.262601">
        <ele>38.177435</ele>
        <time>2025-09-27T06:51:52.723Z</time>
      </trkpt>
      <trkpt lat="48.887013" lon="2.262771">
        <ele>38.055323</ele>
        <time>2025-09-27T06:51:55.295Z</time>
      </trkpt>
      <trkpt lat="48.887585" lon="2.263702">
        <ele>37.376230</ele>
        <time>2025-09-27T06:52:06.224Z</time>
      </trkpt>
      <trkpt lat="48.887632" lon="2.263779">
        <ele>37.320235</ele>
        <time>2025-09-27T06:52:07.020Z</time>
      </trkpt>
      <trkpt lat="48.887688" lon="2.263863">
        <ele>37.256481</ele>
        <time>2025-09-27T06:52:07.903Z</time>
      </trkpt>
      <trkpt lat="48.888104" lon="2.264496">
        <ele>36.779498</ele>
        <time>2025-09-27T06:52:14.679Z</time>
      </trkpt>
      <trkpt lat="48.888200" lon="2.264644">
        <ele>36.659401</ele>
        <time>2025-09-27T06:52:16.265Z</time>
      </trkpt>
      <trkpt lat="48.888293" lon="2.264858">
        <ele>36.503323</ele>
        <time>2025-09-27T06:52:18.201Z</time>
      </trkpt>
      <trkpt lat="48.888750" lon="2.265912">
        <ele>35.735143</ele>
        <time>2025-09-27T06:52:28.046Z</time>
      </trkpt>
      <trkpt lat="48.888844" lon="2.266132">
        <ele>35.575506</ele>
        <time>2025-09-27T06:52:30.504Z</time>
      </trkpt>
      <trkpt lat="48.888865" lon="2.266180">
        <ele>35.540426</ele>
        <time>2025-09-27T06:52:31.020Z</time>
      </trkpt>
      <trkpt lat="48.889006" lon="2.266506">
        <ele>35.303009</ele>
        <time>2025-09-27T06:52:34.607Z</time>
      </trkpt>
      <trkpt lat="48.889041" lon="2.266587">
        <ele>35.244036</ele>
        <time>2025-09-27T06:52:35.478Z</time>
      </trkpt>
      <trkpt lat="48.889074" lon="2.266663">
        <ele>35.188621</ele>
        <time>2025-09-27T06:52:36.302Z</time>
      </trkpt>
      <trkpt lat="48.889266" lon="2.267115">
        <ele>34.959551</ele>
        <time>2025-09-27T06:52:41.084Z</time>
      </trkpt>
      <trkpt lat="48.889414" lon="2.267462">
        <ele>34.826452</ele>
        <time>2025-09-27T06:52:44.543Z</time>
      </trkpt>
      <trkpt lat="48.889437" lon="2.267515">
        <ele>34.806017</ele>
        <time>2025-09-27T06:52:45.071Z</time>
      </trkpt>
      <trkpt lat="48.889815" lon="2.268412">
        <ele>34.463169</ele>
        <time>2025-09-27T06:52:54.525Z</time>
      </trkpt>
      <trkpt lat="48.889849" lon="2.268493">
        <ele>34.432244</ele>
        <time>2025-09-27T06:52:55.374Z</time>
      </trkpt>
      <trkpt lat="48.889879" lon="2.268566">
        <ele>34.404542</ele>
        <time>2025-09-27T06:52:56.125Z</time>
      </trkpt>
      <trkpt lat="48.889971" lon="2.268774">
        <ele>34.323874</ele>
        <time>2025-09-27T06:52:58.287Z</time>
      </trkpt>
      <trkpt lat="48.890075" lon="2.269008">
        <ele>34.232985</ele>
        <time>2025-09-27T06:53:00.644Z</time>
      </trkpt>
      <trkpt lat="48.890090" lon="2.269042">
        <ele>34.219809</ele>
        <time>2025-09-27T06:53:00.975Z</time>
      </trkpt>
      <trkpt lat="48.890244" lon="2.269389">
        <ele>34.090153</ele>
        <time>2025-09-27T06:53:04.517Z</time>
      </trkpt>
      <trkpt lat="48.890326" lon="2.269575">
        <ele>34.021579</ele>
        <time>2025-09-27T06:53:06.490Z</time>
      </trkpt>
      <trkpt lat="48.890400" lon="2.269743">
        <ele>33.959657</ele>
        <time>2025-09-27T06:53:08.302Z</time>
      </trkpt>
      <trkpt lat="48.890426" lon="2.269801">
        <ele>33.938162</ele>
        <time>2025-09-27T06:53:08.921Z</time>
      </trkpt>
      <trkpt lat="48.890454" lon="2.269865">
        <ele>33.914622</ele>
        <time>2025-09-27T06:53:09.604Z</time>
      </trkpt>
      <trkpt lat="48.890623" lon="2.270259">
        <ele>33.770570</ele>
        <time>2025-09-27T06:53:14.138Z</time>
      </trkpt>
      <trkpt lat="48.890685" lon="2.270399">
        <ele>33.718883</ele>
        <time>2025-09-27T06:53:15.755Z</time>
      </trkpt>
      <trkpt lat="48.890742" lon="2.270548">
        <ele>33.666096</ele>
        <time>2025-09-27T06:53:17.386Z</time>
      </trkpt>
      <trkpt lat="48.891096" lon="2.270274">
        <ele>33.481109</ele>
        <time>2025-09-27T06:53:22.732Z</time>
      </trkpt>
      <trkpt lat="48.891468" lon="2.269907">
        <ele>33.259297</ele>
        <time>2025-09-27T06:53:28.087Z</time>
      </trkpt>
      <trkpt lat="48.892166" lon="2.269183">
        <ele>32.788007</ele>
        <time>2025-09-27T06:53:38.853Z</time>
      </trkpt>
      <trkpt lat="48.892299" lon="2.269028">
        <ele>32.694540</ele>
        <time>2025-09-27T06:53:41.179Z</time>
      </trkpt>
      <trkpt lat="48.892336" lon="2.268929">
        <ele>32.652775</ele>
        <time>2025-09-27T06:53:42.175Z</time>
      </trkpt>
      <trkpt lat="48.893094" lon="2.268151">
        <ele>32.430682</ele>
        <time>2025-09-27T06:53:54.769Z</time>
      </trkpt>
      <trkpt lat="48.893285" lon="2.267946">
        <ele>32.482604</ele>
        <time>2025-09-27T06:53:58.068Z</time>
      </trkpt>
      <trkpt lat="48.893328" lon="2.267939">
        <ele>32.492209</ele>
        <time>2025-09-27T06:53:58.745Z</time>
      </trkpt>
      <trkpt lat="48.893572" lon="2.267727">
        <ele>32.554622</ele>
        <time>2025-09-27T06:54:03.088Z</time>
      </trkpt>
      <trkpt lat="48.893634" lon="2.267662">
        <ele>32.571347</ele>
        <time>2025-09-27T06:54:04.222Z</time>
      </trkpt>
      <trkpt lat="48.893698" lon="2.267590">
        <ele>32.589028</ele>
        <time>2025-09-27T06:54:05.466Z</time>
      </trkpt>
      <trkpt lat="48.893811" lon="2.267490">
        <ele>32.618065</ele>
        <time>2025-09-27T06:54:07.638Z</time>
      </trkpt>
      <trkpt lat="48.894159" lon="2.267123">
        <ele>32.712120</ele>
        <time>2025-09-27T06:54:15.278Z</time>
      </trkpt>
      <trkpt lat="48.894232" lon="2.267044">
        <ele>32.732019</ele>
        <time>2025-09-27T06:54:16.998Z</time>
      </trkpt>
      <trkpt lat="48.894294" lon="2.266962">
        <ele>32.742428</ele>
        <time>2025-09-27T06:54:18.524Z</time>
      </trkpt>
      <trkpt lat="48.894567" lon="2.266670">
        <ele>32.541272</ele>
        <time>2025-09-27T06:54:24.563Z</time>
      </trkpt>
      <trkpt lat="48.894782" lon="2.266458">
        <ele>32.386838</ele>
        <time>2025-09-27T06:54:28.829Z</time>
      </trkpt>
      <trkpt lat="48.894887" lon="2.266352">
        <ele>32.310881</ele>
        <time>2025-09-27T06:54:30.714Z</time>
      </trkpt>
      <trkpt lat="48.895118" lon="2.266131">
        <ele>32.146399</ele>
        <time>2025-09-27T06:54:34.415Z</time>
      </trkpt>
      <trkpt lat="48.895258" lon="2.265998">
        <ele>32.046911</ele>
        <time>2025-09-27T06:54:36.429Z</time>
      </trkpt>
      <trkpt lat="48.895343" lon="2.265931">
        <ele>31.989209</ele>
        <time>2025-09-27T06:54:37.498Z</time>
      </trkpt>
      <trkpt lat="48.895428" lon="2.265840">
        <ele>31.926559</ele>
        <time>2025-09-27T06:54:38.643Z</time>
      </trkpt>
      <trkpt lat="48.895971" lon="2.265308">
        <ele>32.275542</ele>
        <time>2025-09-27T06:54:45.338Z</time>
      </trkpt>
      <trkpt lat="48.896061" lon="2.265166">
        <ele>32.652446</ele>
        <time>2025-09-27T06:54:46.986Z</time>
      </trkpt>
      <trkpt lat="48.896316" lon="2.264925">
        <ele>33.525037</ele>
        <time>2025-09-27T06:54:52.022Z</time>
      </trkpt>
      <trkpt lat="48.896380" lon="2.264913">
        <ele>33.712466</ele>
        <time>2025-09-27T06:54:53.430Z</time>
      </trkpt>
      <trkpt lat="48.896590" lon="2.264706">
        <ele>34.439802</ele>
        <time>2025-09-27T06:54:59.722Z</time>
      </trkpt>
      <trkpt lat="48.896735" lon="2.264568">
        <ele>34.936952</ele>
        <time>2025-09-27T06:55:05.138Z</time>
      </trkpt>
      <trkpt lat="48.896771" lon="2.264533">
        <ele>35.061136</ele>
        <time>2025-09-27T06:55:06.717Z</time>
      </trkpt>
      <trkpt lat="48.896824" lon="2.264476">
        <ele>35.249799</ele>
        <time>2025-09-27T06:55:09.027Z</time>
      </trkpt>
      <trkpt lat="48.896932" lon="2.264370">
        <ele>35.623382</ele>
        <time>2025-09-27T06:55:14.039Z</time>
      </trkpt>
      <trkpt lat="48.897037" lon="2.264386">
        <ele>35.930100</ele>
        <time>2025-09-27T06:55:18.315Z</time>
      </trkpt>
      <trkpt lat="48.897503" lon="2.264079">
        <ele>37.586894</ele>
        <time>2025-09-27T06:55:41.116Z</time>
      </trkpt>
      <trkpt lat="48.897549" lon="2.264049">
        <ele>37.783506</ele>
        <time>2025-09-27T06:55:43.367Z</time>
      </trkpt>
      <trkpt lat="48.897965" lon="2.263769">
        <ele>39.570523</ele>
        <time>2025-09-27T06:56:03.740Z</time>
      </trkpt>
      <trkpt lat="48.898022" lon="2.263731">
        <ele>39.814999</ele>
        <time>2025-09-27T06:56:05.902Z</time>
      </trkpt>
      <trkpt lat="48.898061" lon="2.263841">
        <ele>40.137752</ele>
        <time>2025-09-27T06:56:08.564Z</time>
      </trkpt>
      <trkpt lat="48.898357" lon="2.264681">
        <ele>42.599022</ele>
        <time>2025-09-27T06:56:24.195Z</time>
      </trkpt>
      <trkpt lat="48.898592" lon="2.265322">
        <ele>43.985531</ele>
        <time>2025-09-27T06:56:32.194Z</time>
      </trkpt>
      <trkpt lat="48.898612" lon="2.265375">
        <ele>43.993742</ele>
        <time>2025-09-27T06:56:32.741Z</time>
      </trkpt>
      <trkpt lat="48.898701" lon="2.265598">
        <ele>44.028791</ele>
        <time>2025-09-27T06:56:35.133Z</time>
      </trkpt>
      <trkpt lat="48.898954" lon="2.266189">
        <ele>44.123544</ele>
        <time>2025-09-27T06:56:41.376Z</time>
      </trkpt>
      <trkpt lat="48.899063" lon="2.266443">
        <ele>44.164296</ele>
        <time>2025-09-27T06:56:44.041Z</time>
      </trkpt>
      <trkpt lat="48.899110" lon="2.266553">
        <ele>44.181922</ele>
        <time>2025-09-27T06:56:45.217Z</time>
      </trkpt>
      <trkpt lat="48.899373" lon="2.267173">
        <ele>44.281055</ele>
        <time>2025-09-27T06:56:53.243Z</time>
      </trkpt>
      <trkpt lat="48.899392" lon="2.267218">
        <ele>44.288240</ele>
        <time>2025-09-27T06:56:53.901Z</time>
      </trkpt>
      <trkpt lat="48.899561" lon="2.267616">
        <ele>44.373943</ele>
        <time>2025-09-27T06:56:59.257Z</time>
      </trkpt>
      <trkpt lat="48.899677" lon="2.267887">
        <ele>44.453263</ele>
        <time>2025-09-27T06:57:02.732Z</time>
      </trkpt>
      <trkpt lat="48.899822" lon="2.268224">
        <ele>44.552052</ele>
        <time>2025-09-27T06:57:07.045Z</time>
      </trkpt>
      <trkpt lat="48.899856" lon="2.268303">
        <ele>44.575213</ele>
        <time>2025-09-27T06:57:08.052Z</time>
      </trkpt>
      <trkpt lat="48.899873" lon="2.268342">
        <ele>44.586690</ele>
        <time>2025-09-27T06:57:08.552Z</time>
      </trkpt>
      <trkpt lat="48.899928" lon="2.268473">
        <ele>44.624816</ele>
        <time>2025-09-27T06:57:10.255Z</time>
      </trkpt>
      <trkpt lat="48.900056" lon="2.268773">
        <ele>44.712538</ele>
        <time>2025-09-27T06:57:14.231Z</time>
      </trkpt>
      <trkpt lat="48.900194" lon="2.269098">
        <ele>44.807436</ele>
        <time>2025-09-27T06:57:18.756Z</time>
      </trkpt>
      <trkpt lat="48.900419" lon="2.269619">
        <ele>44.960333</ele>
        <time>2025-09-27T06:57:25.574Z</time>
      </trkpt>
      <trkpt lat="48.900673" lon="2.270211">
        <ele>44.908365</ele>
        <time>2025-09-27T06:57:31.919Z</time>
      </trkpt>
      <trkpt lat="48.901092" lon="2.271186">
        <ele>44.725572</ele>
        <time>2025-09-27T06:57:42.454Z</time>
      </trkpt>
      <trkpt lat="48.901133" lon="2.271271">
        <ele>44.709028</ele>
        <time>2025-09-27T06:57:43.422Z</time>
      </trkpt>
      <trkpt lat="48.901171" lon="2.271348">
        <ele>44.693919</ele>
        <time>2025-09-27T06:57:44.311Z</time>
      </trkpt>
      <trkpt lat="48.901394" lon="2.271832">
        <ele>44.601171</ele>
        <time>2025-09-27T06:57:49.640Z</time>
      </trkpt>
      <trkpt lat="48.901410" lon="2.271872">
        <ele>44.593824</ele>
        <time>2025-09-27T06:57:50.056Z</time>
      </trkpt>
      <trkpt lat="48.901546" lon="2.272184">
        <ele>44.528614</ele>
        <time>2025-09-27T06:57:53.454Z</time>
      </trkpt>
      <trkpt lat="48.901602" lon="2.272314">
        <ele>44.499274</ele>
        <time>2025-09-27T06:57:54.861Z</time>
      </trkpt>
      <trkpt lat="48.901680" lon="2.272499">
        <ele>44.457785</ele>
        <time>2025-09-27T06:57:56.871Z</time>
      </trkpt>
      <trkpt lat="48.901926" lon="2.273066">
        <ele>44.329542</ele>
        <time>2025-09-27T06:58:03.177Z</time>
      </trkpt>
      <trkpt lat="48.902009" lon="2.273260">
        <ele>44.285847</ele>
        <time>2025-09-27T06:58:05.305Z</time>
      </trkpt>
      <trkpt lat="48.902016" lon="2.273277">
        <ele>44.282061</ele>
        <time>2025-09-27T06:58:05.487Z</time>
      </trkpt>
      <trkpt lat="48.902064" lon="2.273401">
        <ele>44.254896</ele>
        <time>2025-09-27T06:58:06.752Z</time>
      </trkpt>
      <trkpt lat="48.902103" lon="2.273493">
        <ele>44.234231</ele>
        <time>2025-09-27T06:58:07.704Z</time>
      </trkpt>
      <trkpt lat="48.902177" lon="2.273672">
        <ele>44.194315</ele>
        <time>2025-09-27T06:58:09.627Z</time>
      </trkpt>
      <trkpt lat="48.902339" lon="2.274042">
        <ele>44.110396</ele>
        <time>2025-09-27T06:58:13.731Z</time>
      </trkpt>
      <trkpt lat="48.902505" lon="2.274417">
        <ele>44.005371</ele>
        <time>2025-09-27T06:58:17.934Z</time>
      </trkpt>
      <trkpt lat="48.902565" lon="2.274576">
        <ele>43.943908</ele>
        <time>2025-09-27T06:58:19.632Z</time>
      </trkpt>
      <trkpt lat="48.902515" lon="2.274670">
        <ele>43.903370</ele>
        <time>2025-09-27T06:58:20.657Z</time>
      </trkpt>
      <trkpt lat="48.902512" lon="2.274784">
        <ele>43.865121</ele>
        <time>2025-09-27T06:58:21.671Z</time>
      </trkpt>
      <trkpt lat="48.902526" lon="2.274833">
        <ele>43.847210</ele>
        <time>2025-09-27T06:58:22.097Z</time>
      </trkpt>
      <trkpt lat="48.902583" lon="2.274907">
        <ele>43.808993</ele>
        <time>2025-09-27T06:58:23.083Z</time>
      </trkpt>
      <trkpt lat="48.902620" lon="2.274921">
        <ele>43.789548</ele>
        <time>2025-09-27T06:58:23.605Z</time>
      </trkpt>
      <trkpt lat="48.902715" lon="2.275100">
        <ele>43.712422</ele>
        <time>2025-09-27T06:58:25.556Z</time>
      </trkpt>
      <trkpt lat="48.902799" lon="2.275272">
        <ele>43.640587</ele>
        <time>2025-09-27T06:58:27.371Z</time>
      </trkpt>
      <trkpt lat="48.902908" lon="2.275407">
        <ele>43.568904</ele>
        <time>2025-09-27T06:58:29.190Z</time>
      </trkpt>
      <trkpt lat="48.903287" lon="2.276225">
        <ele>43.233402</ele>
        <time>2025-09-27T06:58:37.800Z</time>
      </trkpt>
      <trkpt lat="48.903632" lon="2.277042">
        <ele>42.652729</ele>
        <time>2025-09-27T06:58:46.445Z</time>
      </trkpt>
      <trkpt lat="48.903644" lon="2.277069">
        <ele>42.629427</ele>
        <time>2025-09-27T06:58:46.722Z</time>
      </trkpt>
      <trkpt lat="48.903668" lon="2.277124">
        <ele>42.582228</ele>
        <time>2025-09-27T06:58:47.318Z</time>
      </trkpt>
      <trkpt lat="48.903957" lon="2.277788">
        <ele>42.012859</ele>
        <time>2025-09-27T06:58:53.613Z</time>
      </trkpt>
      <trkpt lat="48.903979" lon="2.277841">
        <ele>41.968044</ele>
        <time>2025-09-27T06:58:54.116Z</time>
      </trkpt>
      <trkpt lat="48.904117" lon="2.278155">
        <ele>41.697991</ele>
        <time>2025-09-27T06:58:57.079Z</time>
      </trkpt>
      <trkpt lat="48.904176" lon="2.278288">
        <ele>41.583273</ele>
        <time>2025-09-27T06:58:58.327Z</time>
      </trkpt>
      <trkpt lat="48.904477" lon="2.278852">
        <ele>40.962975</ele>
        <time>2025-09-27T06:59:03.770Z</time>
      </trkpt>
      <trkpt lat="48.904762" lon="2.279276">
        <ele>40.141920</ele>
        <time>2025-09-27T06:59:08.213Z</time>
      </trkpt>
      <trkpt lat="48.905157" lon="2.279855">
        <ele>39.012126</ele>
        <time>2025-09-27T06:59:13.954Z</time>
      </trkpt>
      <trkpt lat="48.905205" lon="2.279926">
        <ele>38.874231</ele>
        <time>2025-09-27T06:59:14.670Z</time>
      </trkpt>
      <trkpt lat="48.905552" lon="2.280440">
        <ele>37.876685</ele>
        <time>2025-09-27T06:59:19.935Z</time>
      </trkpt>
      <trkpt lat="48.906138" lon="2.281286">
        <ele>36.713957</ele>
        <time>2025-09-27T06:59:28.909Z</time>
      </trkpt>
      <trkpt lat="48.906181" lon="2.281349">
        <ele>36.639937</ele>
        <time>2025-09-27T06:59:29.621Z</time>
      </trkpt>
      <trkpt lat="48.906387" lon="2.281642">
        <ele>36.290275</ele>
        <time>2025-09-27T06:59:32.919Z</time>
      </trkpt>
      <trkpt lat="48.906422" lon="2.281694">
        <ele>36.229617</ele>
        <time>2025-09-27T06:59:33.504Z</time>
      </trkpt>
      <trkpt lat="48.906440" lon="2.281722">
        <ele>36.197697</ele>
        <time>2025-09-27T06:59:33.814Z</time>
      </trkpt>
      <trkpt lat="48.906602" lon="2.281962">
        <ele>35.917329</ele>
        <time>2025-09-27T06:59:36.562Z</time>
      </trkpt>
      <trkpt lat="48.906917" lon="2.282414">
        <ele>35.380440</ele>
        <time>2025-09-27T06:59:42.314Z</time>
      </trkpt>
      <trkpt lat="48.906953" lon="2.282468">
        <ele>35.317756</ele>
        <time>2025-09-27T06:59:43.015Z</time>
      </trkpt>
      <trkpt lat="48.907344" lon="2.283050">
        <ele>34.941958</ele>
        <time>2025-09-27T06:59:50.225Z</time>
      </trkpt>
      <trkpt lat="48.907603" lon="2.283429">
        <ele>34.720119</ele>
        <time>2025-09-27T06:59:54.749Z</time>
      </trkpt>
      <trkpt lat="48.907616" lon="2.283448">
        <ele>34.708991</ele>
        <time>2025-09-27T06:59:54.992Z</time>
      </trkpt>
      <trkpt lat="48.907683" lon="2.283546">
        <ele>34.651616</ele>
        <time>2025-09-27T06:59:56.129Z</time>
      </trkpt>
      <trkpt lat="48.907951" lon="2.283937">
        <ele>34.422397</ele>
        <time>2025-09-27T07:00:00.741Z</time>
      </trkpt>
      <trkpt lat="48.908110" lon="2.284169">
        <ele>34.286398</ele>
        <time>2025-09-27T07:00:03.501Z</time>
      </trkpt>
      <trkpt lat="48.908332" lon="2.284479">
        <ele>34.166654</ele>
        <time>2025-09-27T07:00:07.558Z</time>
      </trkpt>
      <trkpt lat="48.908401" lon="2.284581">
        <ele>34.233757</ele>
        <time>2025-09-27T07:00:09.028Z</time>
      </trkpt>
      <trkpt lat="48.908650" lon="2.284949">
        <ele>34.475881</ele>
        <time>2025-09-27T07:00:14.106Z</time>
      </trkpt>
      <trkpt lat="48.909568" lon="2.286273">
        <ele>35.358142</ele>
        <time>2025-09-27T07:00:39.168Z</time>
      </trkpt>
      <trkpt lat="48.909600" lon="2.286376">
        <ele>35.386036</ele>
        <time>2025-09-27T07:00:40.630Z</time>
      </trkpt>
      <trkpt lat="48.909622" lon="2.286472">
        <ele>35.386036</ele>
        <time>2025-09-27T07:00:41.911Z</time>
      </trkpt>
      <trkpt lat="48.910002" lon="2.288002">
        <ele>35.386036</ele>
        <time>2025-09-27T07:00:59.332Z</time>
      </trkpt>
      <trkpt lat="48.910011" lon="2.288038">
        <ele>35.386036</ele>
        <time>2025-09-27T07:00:59.685Z</time>
      </trkpt>
      <trkpt lat="48.910076" lon="2.288284">
        <ele>35.386036</ele>
        <time>2025-09-27T07:01:02.072Z</time>
      </trkpt>
      <trkpt lat="48.910124" lon="2.288454">
        <ele>35.386036</ele>
        <time>2025-09-27T07:01:03.764Z</time>
      </trkpt>
      <trkpt lat="48.910076" lon="2.288284">
        <ele>35.386036</ele>
        <time>2025-09-27T07:01:05.437Z</time>
      </trkpt>
      <trkpt lat="48.910054" lon="2.288200">
        <ele>35.386036</ele>
        <time>2025-09-27T07:01:06.277Z</time>
      </trkpt>
    </trkseg>
  </trk>
</gpx>